Flood From: 19-02-2018 10:30 Until: 20-02-2018 06:00 warning for: Flood Level: Yellow info button

Although rather usual in this region, locally or potentially dangerous phenomena are expected. (such as local winds, summer thunderstorms, rising streams or high waves) Be aware and pay attention to the latest weather updates, especially if you carry out activities exposed to weather or close to a stream or shoreline. 


Meteo18 Weather Cam more information Meteo18 Weather Cam


Thunder radar more information blitzortung!


Rain radar more information rain snow radar


Visit our other weather sites:

Template documentation
and downloads

And another site



Weather Underground History page Text

Daily Summary for May 16, 2017 Units:  Both    English   Metric
« Previous Day
Next Day »
Daily Weekly Monthly Yearly Custom
  High: Low: Average:
Temperature: TemperatureC °F /  -17.8 °C 11.4 °F /  -11.4 °C 19.2 °F /  -7.1 °C
Dew Point: DewpointC °F /  -17.8 °C 9.8 °F /  -12.3 °C 12.5 °F /  -10.8 °C
Humidity: Humidity % 41 % 67 %
Wind Speed: WindSpeedKMH mph /  0 km/h - 1.5 mph /  2.4 km/h
Wind Gust: WindSpeedGustKMH mph /  0 km/h - -
Wind:- - ESE
Pressure: PressurehPa in /  0 hPa 1024.6 in /  34693 hPa -
Precipitation: 0.0 in /  0 mm    
Historical Graphs
 
 
Tabular Data for May 16, 2017
Time Temperature Dew Point Pressure Wind Wind Speed Wind Gust Humidity Rainfall Rate (Hourly)
TemperatureC °F /  -17.8 °C DewpointC °F /  -17.8 °C PressurehPa in /  0 hPa Calm     Humidity % HourlyPrecipMM in /  0 mm
00:07 15.3 °F /  -9.3 °C 11.5 °F /  -11.4 °C 1029.3 in /  34852.1 hPa NW 1.6 mph /  2.6 km/h 3.2 mph /  5.1 km/h 78 % 0.0 in /  0 mm
00:12 15.1 °F /  -9.4 °C 11.3 °F /  -11.5 °C 1029.3 in /  34852.1 hPa Calm   3.2 mph /  5.1 km/h 78 % 0.0 in /  0 mm
00:17 14.8 °F /  -9.6 °C 11.2 °F /  -11.6 °C 1029.3 in /  34852.1 hPa Calm   3.2 mph /  5.1 km/h 79 % 0.0 in /  0 mm
00:27 14.3 °F /  -9.8 °C 11.3 °F /  -11.5 °C 1029.3 in /  34852.1 hPa Calm   1.6 mph /  2.6 km/h 82 % 0.0 in /  0 mm
00:32 14.4 °F /  -9.8 °C 11.2 °F /  -11.6 °C 1029.3 in /  34852.1 hPa Calm   1.6 mph /  2.6 km/h 81 % 0.0 in /  0 mm
00:37 14.4 °F /  -9.8 °C 11.2 °F /  -11.6 °C 1029.3 in /  34852.1 hPa Calm   1.6 mph /  2.6 km/h 81 % 0.0 in /  0 mm
00:42 14.1 °F /  -9.9 °C 11.1 °F /  -11.6 °C 1029.3 in /  34852.1 hPa Calm   1.6 mph /  2.6 km/h 82 % 0.0 in /  0 mm
00:52 13.9 °F /  -10.1 °C 11.2 °F /  -11.6 °C 1029.3 in /  34852.1 hPa WNW 1.6 mph /  2.6 km/h 3.2 mph /  5.1 km/h 84 % 0.0 in /  0 mm
00:57 14.0 °F /  -10 °C 11.2 °F /  -11.6 °C 1029.3 in /  34852.1 hPa WNW 1.6 mph /  2.6 km/h 3.2 mph /  5.1 km/h 83 % 0.0 in /  0 mm
01:02 14.2 °F /  -9.9 °C 11.2 °F /  -11.6 °C 1029.3 in /  34852.1 hPa Calm   3.2 mph /  5.1 km/h 82 % 0.0 in /  0 mm
01:07 14.4 °F /  -9.8 °C 11.2 °F /  -11.6 °C 1029.3 in /  34852.1 hPa Calm   3.2 mph /  5.1 km/h 81 % 0.0 in /  0 mm
01:12 14.6 °F /  -9.7 °C 11.2 °F /  -11.6 °C 1029.3 in /  34852.1 hPa Calm   1.6 mph /  2.6 km/h 80 % 0.0 in /  0 mm
01:22 14.4 °F /  -9.8 °C 11.0 °F /  -11.7 °C 1029.3 in /  34852.1 hPa Calm     80 % 0.0 in /  0 mm
01:27 14.2 °F /  -9.9 °C 10.8 °F /  -11.8 °C 1029.3 in /  34852.1 hPa Calm     80 % 0.0 in /  0 mm
01:32 14.1 °F /  -9.9 °C 10.9 °F /  -11.7 °C 1029.0 in /  34841.9 hPa Calm     81 % 0.0 in /  0 mm
01:42 14.0 °F /  -10 °C 10.8 °F /  -11.8 °C 1029.0 in /  34841.9 hPa Calm     81 % 0.0 in /  0 mm
01:47 13.9 °F /  -10.1 °C 10.7 °F /  -11.8 °C 1029.0 in /  34841.9 hPa Calm     81 % 0.0 in /  0 mm
01:52 13.8 °F /  -10.1 °C 10.8 °F /  -11.8 °C 1029.0 in /  34841.9 hPa Calm     82 % 0.0 in /  0 mm
01:57 13.6 °F /  -10.2 °C 10.8 °F /  -11.8 °C 1029.0 in /  34841.9 hPa Calm     83 % 0.0 in /  0 mm
02:02 13.3 °F /  -10.4 °C 10.8 °F /  -11.8 °C 1029.0 in /  34841.9 hPa Calm     85 % 0.0 in /  0 mm
02:12 13.2 °F /  -10.4 °C 10.7 °F /  -11.8 °C 1029.0 in /  34841.9 hPa Calm     85 % 0.0 in /  0 mm
02:17 13.3 °F /  -10.4 °C 10.8 °F /  -11.8 °C 1028.7 in /  34831.8 hPa Calm     85 % 0.0 in /  0 mm
02:22 13.1 °F /  -10.5 °C 10.6 °F /  -11.9 °C 1029.0 in /  34841.9 hPa Calm     85 % 0.0 in /  0 mm
02:32 12.7 °F /  -10.7 °C 10.6 °F /  -11.9 °C 1029.0 in /  34841.9 hPa Calm     87 % 0.0 in /  0 mm
02:37 12.7 °F /  -10.7 °C 10.8 °F /  -11.8 °C 1029.0 in /  34841.9 hPa Calm     88 % 0.0 in /  0 mm
02:42 12.9 °F /  -10.6 °C 10.6 °F /  -11.9 °C 1028.7 in /  34831.8 hPa Calm     86 % 0.0 in /  0 mm
02:47 12.8 °F /  -10.7 °C 10.7 °F /  -11.8 °C 1028.7 in /  34831.8 hPa Calm     87 % 0.0 in /  0 mm
02:52 12.9 °F /  -10.6 °C 10.8 °F /  -11.8 °C 1028.7 in /  34831.8 hPa Calm     87 % 0.0 in /  0 mm
02:57 13.3 °F /  -10.4 °C 10.8 °F /  -11.8 °C 1028.7 in /  34831.8 hPa Calm     85 % 0.0 in /  0 mm
03:02 13.4 °F /  -10.3 °C 10.8 °F /  -11.8 °C 1028.7 in /  34831.8 hPa Calm     84 % 0.0 in /  0 mm
03:12 13.2 °F /  -10.4 °C 10.4 °F /  -12 °C 1028.7 in /  34831.8 hPa Calm     83 % 0.0 in /  0 mm
03:17 13.1 °F /  -10.5 °C 10.5 °F /  -11.9 °C 1028.7 in /  34831.8 hPa Calm     84 % 0.0 in /  0 mm
03:22 13.1 °F /  -10.5 °C 10.5 °F /  -11.9 °C 1028.7 in /  34831.8 hPa Calm     84 % 0.0 in /  0 mm
03:32 13.0 °F /  -10.6 °C 10.4 °F /  -12 °C 1028.7 in /  34831.8 hPa Calm     84 % 0.0 in /  0 mm
03:37 13.0 °F /  -10.6 °C 10.5 °F /  -11.9 °C 1028.7 in /  34831.8 hPa Calm     85 % 0.0 in /  0 mm
03:42 13.2 °F /  -10.4 °C 10.6 °F /  -11.9 °C 1028.7 in /  34831.8 hPa Calm     84 % 0.0 in /  0 mm
03:47 13.3 °F /  -10.4 °C 10.5 °F /  -11.9 °C 1028.7 in /  34831.8 hPa Calm     83 % 0.0 in /  0 mm
03:52 13.1 °F /  -10.5 °C 10.3 °F /  -12.1 °C 1028.7 in /  34831.8 hPa Calm     83 % 0.0 in /  0 mm
03:57 13.0 °F /  -10.6 °C 10.5 °F /  -11.9 °C 1028.7 in /  34831.8 hPa Calm     85 % 0.0 in /  0 mm
04:02 13.2 °F /  -10.4 °C 10.7 °F /  -11.8 °C 1028.7 in /  34831.8 hPa Calm     85 % 0.0 in /  0 mm
04:07 13.2 °F /  -10.4 °C 10.4 °F /  -12 °C 1028.7 in /  34831.8 hPa Calm     83 % 0.0 in /  0 mm
04:12 13.0 °F /  -10.6 °C 10.2 °F /  -12.1 °C 1028.3 in /  34818.2 hPa Calm     83 % 0.0 in /  0 mm
04:17 12.7 °F /  -10.7 °C 10.1 °F /  -12.2 °C 1028.3 in /  34818.2 hPa Calm     84 % 0.0 in /  0 mm
04:22 12.5 °F /  -10.8 °C 10.0 °F /  -12.2 °C 1028.3 in /  34818.2 hPa Calm     85 % 0.0 in /  0 mm
04:32 12.6 °F /  -10.8 °C 10.3 °F /  -12.1 °C 1028.3 in /  34818.2 hPa Calm     86 % 0.0 in /  0 mm
04:37 12.6 °F /  -10.8 °C 10.3 °F /  -12.1 °C 1028.3 in /  34818.2 hPa Calm     86 % 0.0 in /  0 mm
04:42 12.4 °F /  -10.9 °C 9.9 °F /  -12.3 °C 1028.3 in /  34818.2 hPa Calm     85 % 0.0 in /  0 mm
04:47 12.2 °F /  -11 °C 10.3 °F /  -12.1 °C 1028.7 in /  34831.8 hPa Calm     88 % 0.0 in /  0 mm
04:52 12.2 °F /  -11 °C 10.3 °F /  -12.1 °C 1028.7 in /  34831.8 hPa Calm     88 % 0.0 in /  0 mm
04:57 12.2 °F /  -11 °C 10.1 °F /  -12.2 °C 1028.7 in /  34831.8 hPa Calm     87 % 0.0 in /  0 mm
05:02 12.0 °F /  -11.1 °C 9.9 °F /  -12.3 °C 1028.3 in /  34818.2 hPa Calm     87 % 0.0 in /  0 mm
05:12 11.7 °F /  -11.3 °C 9.9 °F /  -12.3 °C 1028.3 in /  34818.2 hPa Calm     89 % 0.0 in /  0 mm
05:17 11.8 °F /  -11.2 °C 10.2 °F /  -12.1 °C 1028.3 in /  34818.2 hPa Calm     90 % 0.0 in /  0 mm
05:22 11.8 °F /  -11.2 °C 10.0 °F /  -12.2 °C 1028.3 in /  34818.2 hPa Calm     89 % 0.0 in /  0 mm
05:27 11.7 °F /  -11.3 °C 10.1 °F /  -12.2 °C 1028.3 in /  34818.2 hPa Calm     90 % 0.0 in /  0 mm
05:32 11.6 °F /  -11.3 °C 10.0 °F /  -12.2 °C 1028.3 in /  34818.2 hPa Calm     90 % 0.0 in /  0 mm
05:42 11.8 °F /  -11.2 °C 10.0 °F /  -12.2 °C 1028.3 in /  34818.2 hPa Calm     89 % 0.0 in /  0 mm
05:47 11.7 °F /  -11.3 °C 10.1 °F /  -12.2 °C 1028.3 in /  34818.2 hPa Calm     90 % 0.0 in /  0 mm
05:52 11.7 °F /  -11.3 °C 10.1 °F /  -12.2 °C 1028.3 in /  34818.2 hPa Calm     90 % 0.0 in /  0 mm
05:57 11.6 °F /  -11.3 °C 10.0 °F /  -12.2 °C 1028.7 in /  34831.8 hPa Calm     90 % 0.0 in /  0 mm
06:02 11.4 °F /  -11.4 °C 9.8 °F /  -12.3 °C 1028.7 in /  34831.8 hPa Calm     90 % 0.0 in /  0 mm
06:07 11.5 °F /  -11.4 °C 10.1 °F /  -12.2 °C 1028.7 in /  34831.8 hPa Calm     91 % 0.0 in /  0 mm
06:12 11.6 °F /  -11.3 °C 10.2 °F /  -12.1 °C 1028.7 in /  34831.8 hPa Calm     91 % 0.0 in /  0 mm
06:17 11.7 °F /  -11.3 °C 10.3 °F /  -12.1 °C 1028.7 in /  34831.8 hPa Calm     91 % 0.0 in /  0 mm
06:22 11.8 °F /  -11.2 °C 10.2 °F /  -12.1 °C 1028.7 in /  34831.8 hPa Calm     90 % 0.0 in /  0 mm
06:27 11.8 °F /  -11.2 °C 10.2 °F /  -12.1 °C 1028.7 in /  34831.8 hPa Calm     90 % 0.0 in /  0 mm
06:32 11.8 °F /  -11.2 °C 10.2 °F /  -12.1 °C 1028.7 in /  34831.8 hPa Calm     90 % 0.0 in /  0 mm
06:37 12.1 °F /  -11.1 °C 10.5 °F /  -11.9 °C 1028.7 in /  34831.8 hPa Calm     90 % 0.0 in /  0 mm
06:42 12.2 °F /  -11 °C 10.6 °F /  -11.9 °C 1028.7 in /  34831.8 hPa Calm     90 % 0.0 in /  0 mm
06:47 12.4 °F /  -10.9 °C 10.6 °F /  -11.9 °C 1028.7 in /  34831.8 hPa Calm     89 % 0.0 in /  0 mm
06:52 12.7 °F /  -10.7 °C 10.8 °F /  -11.8 °C 1028.7 in /  34831.8 hPa Calm     88 % 0.0 in /  0 mm
06:57 13.1 °F /  -10.5 °C 11.2 °F /  -11.6 °C 1028.7 in /  34831.8 hPa Calm     88 % 0.0 in /  0 mm
07:02 13.1 °F /  -10.5 °C 11.0 °F /  -11.7 °C 1028.7 in /  34831.8 hPa Calm     87 % 0.0 in /  0 mm
07:12 12.9 °F /  -10.6 °C 11.0 °F /  -11.7 °C 1028.7 in /  34831.8 hPa Calm     88 % 0.0 in /  0 mm
07:17 12.8 °F /  -10.7 °C 10.9 °F /  -11.7 °C 1028.7 in /  34831.8 hPa Calm     88 % 0.0 in /  0 mm
07:27 12.7 °F /  -10.7 °C 10.9 °F /  -11.7 °C 1028.7 in /  34831.8 hPa Calm     89 % 0.0 in /  0 mm
07:32 12.7 °F /  -10.7 °C 10.9 °F /  -11.7 °C 1028.7 in /  34831.8 hPa Calm     89 % 0.0 in /  0 mm
07:42 13.0 °F /  -10.6 °C 11.2 °F /  -11.6 °C 1028.7 in /  34831.8 hPa Calm     89 % 0.0 in /  0 mm
07:47 13.1 °F /  -10.5 °C 11.2 °F /  -11.6 °C 1028.7 in /  34831.8 hPa Calm     88 % 0.0 in /  0 mm
07:52 13.2 °F /  -10.4 °C 11.3 °F /  -11.5 °C 1028.7 in /  34831.8 hPa Calm     88 % 0.0 in /  0 mm
07:57 13.3 °F /  -10.4 °C 11.4 °F /  -11.4 °C 1028.7 in /  34831.8 hPa Calm     88 % 0.0 in /  0 mm
08:02 13.4 °F /  -10.3 °C 11.6 °F /  -11.3 °C 1028.7 in /  34831.8 hPa Calm     89 % 0.0 in /  0 mm
08:12 13.7 °F /  -10.2 °C 11.9 °F /  -11.2 °C 1028.7 in /  34831.8 hPa Calm     89 % 0.0 in /  0 mm
08:17 13.8 °F /  -10.1 °C 12.0 °F /  -11.1 °C 1028.7 in /  34831.8 hPa Calm     89 % 0.0 in /  0 mm
08:22 13.9 °F /  -10.1 °C 12.1 °F /  -11.1 °C 1028.7 in /  34831.8 hPa Calm     89 % 0.0 in /  0 mm
08:32 14.4 °F /  -9.8 °C 12.6 °F /  -10.8 °C 1028.7 in /  34831.8 hPa Calm     89 % 0.0 in /  0 mm
08:37 14.8 °F /  -9.6 °C 13.0 °F /  -10.6 °C 1028.7 in /  34831.8 hPa Calm     89 % 0.0 in /  0 mm
08:42 15.0 °F /  -9.4 °C 13.2 °F /  -10.4 °C 1028.7 in /  34831.8 hPa Calm     89 % 0.0 in /  0 mm
08:52 15.7 °F /  -9.1 °C 14.1 °F /  -9.9 °C 1028.7 in /  34831.8 hPa Calm     90 % 0.0 in /  0 mm
08:57 16.1 °F /  -8.8 °C 14.5 °F /  -9.7 °C 1028.7 in /  34831.8 hPa Calm     90 % 0.0 in /  0 mm
09:02 16.3 °F /  -8.7 °C 14.3 °F /  -9.8 °C 1028.7 in /  34831.8 hPa Calm     88 % 0.0 in /  0 mm
09:07 16.3 °F /  -8.7 °C 13.4 °F /  -10.3 °C 1028.7 in /  34831.8 hPa Calm     83 % 0.0 in /  0 mm
09:12 16.4 °F /  -8.7 °C 12.6 °F /  -10.8 °C 1028.7 in /  34831.8 hPa Calm     78 % 0.0 in /  0 mm
09:17 16.9 °F /  -8.4 °C 12.8 °F /  -10.7 °C 1029.0 in /  34841.9 hPa Calm     77 % 0.0 in /  0 mm
09:27 17.5 °F /  -8.1 °C 12.8 °F /  -10.7 °C 1028.7 in /  34831.8 hPa Calm     74 % 0.0 in /  0 mm
09:32 17.8 °F /  -7.9 °C 13.3 °F /  -10.4 °C 1029.0 in /  34841.9 hPa Calm     75 % 0.0 in /  0 mm
09:42 17.9 °F /  -7.8 °C 13.4 °F /  -10.3 °C 1029.0 in /  34841.9 hPa Calm     75 % 0.0 in /  0 mm
09:47 18.0 °F /  -7.8 °C 13.5 °F /  -10.3 °C 1029.0 in /  34841.9 hPa Calm     75 % 0.0 in /  0 mm
09:52 17.9 °F /  -7.8 °C 13.2 °F /  -10.4 °C 1029.0 in /  34841.9 hPa Calm     74 % 0.0 in /  0 mm
09:57 17.8 °F /  -7.9 °C 13.1 °F /  -10.5 °C 1028.7 in /  34831.8 hPa South 1.6 mph /  2.6 km/h   74 % 0.0 in /  0 mm
10:02 18.1 °F /  -7.7 °C 13.8 °F /  -10.1 °C 1028.7 in /  34831.8 hPa Calm   3.2 mph /  5.1 km/h 76 % 0.0 in /  0 mm
10:12 18.9 °F /  -7.3 °C 14.0 °F /  -10 °C 1028.7 in /  34831.8 hPa Calm   3.2 mph /  5.1 km/h 73 % 0.0 in /  0 mm
10:17 19.2 °F /  -7.1 °C 13.4 °F /  -10.3 °C 1028.7 in /  34831.8 hPa South 1.6 mph /  2.6 km/h 3.2 mph /  5.1 km/h 69 % 0.0 in /  0 mm
10:22 19.6 °F /  -6.9 °C 13.8 °F /  -10.1 °C 1028.7 in /  34831.8 hPa South 3.2 mph /  5.1 km/h 3.2 mph /  5.1 km/h 69 % 0.0 in /  0 mm
10:32 19.9 °F /  -6.7 °C 13.6 °F /  -10.2 °C 1028.7 in /  34831.8 hPa South 1.6 mph /  2.6 km/h 3.2 mph /  5.1 km/h 67 % 0.0 in /  0 mm
10:42 20.3 °F /  -6.5 °C 13.3 °F /  -10.4 °C 1028.7 in /  34831.8 hPa Calm   3.2 mph /  5.1 km/h 64 % 0.0 in /  0 mm
10:47 20.3 °F /  -6.5 °C 13.7 °F /  -10.2 °C 1029.0 in /  34841.9 hPa South 1.6 mph /  2.6 km/h 3.2 mph /  5.1 km/h 66 % 0.0 in /  0 mm
10:57 20.7 °F /  -6.3 °C 12.9 °F /  -10.6 °C 1029.0 in /  34841.9 hPa SSW 3.2 mph /  5.1 km/h 4.8 mph /  7.7 km/h 61 % 0.0 in /  0 mm
11:02 21.1 °F /  -6.1 °C 13.3 °F /  -10.4 °C 1028.7 in /  34831.8 hPa SW 1.6 mph /  2.6 km/h 4.8 mph /  7.7 km/h 61 % 0.0 in /  0 mm
11:12 21.5 °F /  -5.8 °C 13.4 °F /  -10.3 °C 1028.7 in /  34831.8 hPa Calm   4.8 mph /  7.7 km/h 60 % 0.0 in /  0 mm
11:17 21.8 °F /  -5.7 °C 13.2 °F /  -10.4 °C 1028.7 in /  34831.8 hPa Calm   4.8 mph /  7.7 km/h 58 % 0.0 in /  0 mm
11:22 21.9 °F /  -5.6 °C 13.0 °F /  -10.6 °C 1028.7 in /  34831.8 hPa SSE 4.8 mph /  7.7 km/h 4.8 mph /  7.7 km/h 57 % 0.0 in /  0 mm
11:27 22.1 °F /  -5.5 °C 13.2 °F /  -10.4 °C 1028.7 in /  34831.8 hPa Calm   6.4 mph /  10.3 km/h 57 % 0.0 in /  0 mm
11:32 22.4 °F /  -5.3 °C 13.2 °F /  -10.4 °C 1028.7 in /  34831.8 hPa South 1.6 mph /  2.6 km/h 8.0 mph /  12.9 km/h 56 % 0.0 in /  0 mm
11:37 22.3 °F /  -5.4 °C 13.4 °F /  -10.3 °C 1028.7 in /  34831.8 hPa Calm   8.0 mph /  12.9 km/h 57 % 0.0 in /  0 mm
11:42 22.6 °F /  -5.2 °C 13.6 °F /  -10.2 °C 1028.7 in /  34831.8 hPa SSE 1.6 mph /  2.6 km/h 8.0 mph /  12.9 km/h 57 % 0.0 in /  0 mm
11:52 22.6 °F /  -5.2 °C 13.1 °F /  -10.5 °C 1028.3 in /  34818.2 hPa SSE 4.8 mph /  7.7 km/h 6.4 mph /  10.3 km/h 55 % 0.0 in /  0 mm
12:02 22.8 °F /  -5.1 °C 13.0 °F /  -10.6 °C 1028.3 in /  34818.2 hPa SE 1.6 mph /  2.6 km/h 6.4 mph /  10.3 km/h 54 % 0.0 in /  0 mm
12:12 22.8 °F /  -5.1 °C 12.7 °F /  -10.7 °C 1028.3 in /  34818.2 hPa SE 3.2 mph /  5.1 km/h 6.4 mph /  10.3 km/h 53 % 0.0 in /  0 mm
12:22 22.9 °F /  -5.1 °C 12.8 °F /  -10.7 °C 1028.3 in /  34818.2 hPa ESE 3.2 mph /  5.1 km/h 8.0 mph /  12.9 km/h 53 % 0.0 in /  0 mm
12:27 22.9 °F /  -5.1 °C 12.5 °F /  -10.8 °C 1028.3 in /  34818.2 hPa SE 3.2 mph /  5.1 km/h 8.0 mph /  12.9 km/h 52 % 0.0 in /  0 mm
12:32 22.9 °F /  -5.1 °C 12.5 °F /  -10.8 °C 1028.3 in /  34818.2 hPa Calm   8.0 mph /  12.9 km/h 52 % 0.0 in /  0 mm
12:37 23.5 °F /  -4.7 °C 14.2 °F /  -9.9 °C 1028.0 in /  34808.1 hPa SE 4.8 mph /  7.7 km/h 8.0 mph /  12.9 km/h 56 % 0.0 in /  0 mm
12:42 23.4 °F /  -4.8 °C 13.3 °F /  -10.4 °C 1028.0 in /  34808.1 hPa East 8.0 mph /  12.9 km/h 8.0 mph /  12.9 km/h 53 % 0.0 in /  0 mm
12:47 23.3 °F /  -4.8 °C 12.9 °F /  -10.6 °C 1028.0 in /  34808.1 hPa East 3.2 mph /  5.1 km/h 14.5 mph /  23.3 km/h 52 % 0.0 in /  0 mm
12:52 23.3 °F /  -4.8 °C 12.9 °F /  -10.6 °C 1028.0 in /  34808.1 hPa East 4.8 mph /  7.7 km/h 14.5 mph /  23.3 km/h 52 % 0.0 in /  0 mm
12:57 23.3 °F /  -4.8 °C 13.2 °F /  -10.4 °C 1028.0 in /  34808.1 hPa East 4.8 mph /  7.7 km/h 14.5 mph /  23.3 km/h 53 % 0.0 in /  0 mm
13:02 22.8 °F /  -5.1 °C 12.7 °F /  -10.7 °C 1027.7 in /  34797.9 hPa ESE 3.2 mph /  5.1 km/h 11.3 mph /  18.2 km/h 53 % 0.0 in /  0 mm
13:12 23.0 °F /  -5 °C 13.7 °F /  -10.2 °C 1027.7 in /  34797.9 hPa ESE 1.6 mph /  2.6 km/h 11.3 mph /  18.2 km/h 56 % 0.0 in /  0 mm
13:17 22.9 °F /  -5.1 °C 12.8 °F /  -10.7 °C 1027.7 in /  34797.9 hPa East 4.8 mph /  7.7 km/h 9.7 mph /  15.6 km/h 53 % 0.0 in /  0 mm
13:22 22.9 °F /  -5.1 °C 13.1 °F /  -10.5 °C 1027.7 in /  34797.9 hPa East 3.2 mph /  5.1 km/h 9.7 mph /  15.6 km/h 54 % 0.0 in /  0 mm
13:32 23.2 °F /  -4.9 °C 13.4 °F /  -10.3 °C 1027.7 in /  34797.9 hPa East 3.2 mph /  5.1 km/h 9.7 mph /  15.6 km/h 54 % 0.0 in /  0 mm
13:37 23.8 °F /  -4.6 °C 13.6 °F /  -10.2 °C 1027.3 in /  34784.4 hPa ESE 8.0 mph /  12.9 km/h 9.7 mph /  15.6 km/h 53 % 0.0 in /  0 mm
13:42 24.0 °F /  -4.4 °C 13.8 °F /  -10.1 °C 1027.3 in /  34784.4 hPa East 4.8 mph /  7.7 km/h 11.3 mph /  18.2 km/h 53 % 0.0 in /  0 mm
13:52 23.9 °F /  -4.5 °C 14.0 °F /  -10 °C 1027.3 in /  34784.4 hPa ENE 6.4 mph /  10.3 km/h 11.3 mph /  18.2 km/h 54 % 0.0 in /  0 mm
13:57 24.1 °F /  -4.4 °C 13.9 °F /  -10.1 °C 1027.0 in /  34774.2 hPa North 4.8 mph /  7.7 km/h 9.7 mph /  15.6 km/h 53 % 0.0 in /  0 mm
14:02 24.4 °F /  -4.2 °C 13.6 °F /  -10.2 °C 1027.0 in /  34774.2 hPa Calm   9.7 mph /  15.6 km/h 51 % 0.0 in /  0 mm
14:12 24.7 °F /  -4.1 °C 13.9 °F /  -10.1 °C 1027.0 in /  34774.2 hPa NNE 4.8 mph /  7.7 km/h 11.3 mph /  18.2 km/h 51 % 0.0 in /  0 mm
14:17 24.3 °F /  -4.3 °C 13.5 °F /  -10.3 °C 1027.0 in /  34774.2 hPa NNE 3.2 mph /  5.1 km/h 11.3 mph /  18.2 km/h 51 % 0.0 in /  0 mm
14:22 24.5 °F /  -4.2 °C 13.7 °F /  -10.2 °C 1027.0 in /  34774.2 hPa Calm   12.9 mph /  20.8 km/h 51 % 0.0 in /  0 mm
14:27 24.6 °F /  -4.1 °C 13.8 °F /  -10.1 °C 1027.0 in /  34774.2 hPa Calm   12.9 mph /  20.8 km/h 51 % 0.0 in /  0 mm
14:32 25.2 °F /  -3.8 °C 14.3 °F /  -9.8 °C 1027.0 in /  34774.2 hPa ESE 3.2 mph /  5.1 km/h 12.9 mph /  20.8 km/h 51 % 0.0 in /  0 mm
14:42 25.4 °F /  -3.7 °C 14.2 °F /  -9.9 °C 1026.6 in /  34760.7 hPa ESE 6.4 mph /  10.3 km/h 14.5 mph /  23.3 km/h 50 % 0.0 in /  0 mm
14:47 25.5 °F /  -3.6 °C 14.0 °F /  -10 °C 1026.6 in /  34760.7 hPa SE 6.4 mph /  10.3 km/h 14.5 mph /  23.3 km/h 49 % 0.0 in /  0 mm
14:52 25.6 °F /  -3.6 °C 14.1 °F /  -9.9 °C 1026.6 in /  34760.7 hPa SW 4.8 mph /  7.7 km/h 14.5 mph /  23.3 km/h 49 % 0.0 in /  0 mm
14:57 25.7 °F /  -3.5 °C 14.2 °F /  -9.9 °C 1026.6 in /  34760.7 hPa SSW 6.4 mph /  10.3 km/h 14.5 mph /  23.3 km/h 49 % 0.0 in /  0 mm
15:02 25.8 °F /  -3.4 °C 14.0 °F /  -10 °C 1026.6 in /  34760.7 hPa SSW 6.4 mph /  10.3 km/h 14.5 mph /  23.3 km/h 48 % 0.0 in /  0 mm
15:07 25.9 °F /  -3.4 °C 14.0 °F /  -10 °C 1026.6 in /  34760.7 hPa WSW 3.2 mph /  5.1 km/h 14.5 mph /  23.3 km/h 48 % 0.0 in /  0 mm
15:12 25.8 °F /  -3.4 °C 13.0 °F /  -10.6 °C 1026.6 in /  34760.7 hPa Calm   14.5 mph /  23.3 km/h 45 % 0.0 in /  0 mm
15:17 26.1 °F /  -3.3 °C 13.6 °F /  -10.2 °C 1026.6 in /  34760.7 hPa SSW 3.2 mph /  5.1 km/h 9.7 mph /  15.6 km/h 46 % 0.0 in /  0 mm
15:22 26.1 °F /  -3.3 °C 13.9 °F /  -10.1 °C 1026.6 in /  34760.7 hPa SSW 4.8 mph /  7.7 km/h 9.7 mph /  15.6 km/h 47 % 0.0 in /  0 mm
15:32 26.0 °F /  -3.3 °C 13.5 °F /  -10.3 °C 1026.6 in /  34760.7 hPa Calm   9.7 mph /  15.6 km/h 46 % 0.0 in /  0 mm
15:37 25.7 °F /  -3.5 °C 13.5 °F /  -10.3 °C 1026.6 in /  34760.7 hPa ESE 6.4 mph /  10.3 km/h 8.0 mph /  12.9 km/h 47 % 0.0 in /  0 mm
15:42 26.0 °F /  -3.3 °C 13.5 °F /  -10.3 °C 1026.3 in /  34750.5 hPa South 1.6 mph /  2.6 km/h 8.0 mph /  12.9 km/h 46 % 0.0 in /  0 mm
15:47 26.2 °F /  -3.2 °C 14.0 °F /  -10 °C 1026.3 in /  34750.5 hPa ESE 3.2 mph /  5.1 km/h 8.0 mph /  12.9 km/h 47 % 0.0 in /  0 mm
15:52 26.1 °F /  -3.3 °C 13.2 °F /  -10.4 °C 1026.3 in /  34750.5 hPa East 1.6 mph /  2.6 km/h 8.0 mph /  12.9 km/h 45 % 0.0 in /  0 mm
16:02 26.3 °F /  -3.2 °C 13.1 °F /  -10.5 °C 1026.3 in /  34750.5 hPa ENE 1.6 mph /  2.6 km/h 6.4 mph /  10.3 km/h 44 % 0.0 in /  0 mm
16:12 25.8 °F /  -3.4 °C 13.0 °F /  -10.6 °C 1026.3 in /  34750.5 hPa WSW 3.2 mph /  5.1 km/h 8.0 mph /  12.9 km/h 45 % 0.0 in /  0 mm
16:17 25.6 °F /  -3.6 °C 13.1 °F /  -10.5 °C 1026.0 in /  34740.4 hPa Calm   8.0 mph /  12.9 km/h 46 % 0.0 in /  0 mm
16:22 25.9 °F /  -3.4 °C 13.7 °F /  -10.2 °C 1026.0 in /  34740.4 hPa Calm   9.7 mph /  15.6 km/h 47 % 0.0 in /  0 mm
16:27 26.3 °F /  -3.2 °C 13.8 °F /  -10.1 °C 1026.0 in /  34740.4 hPa Calm   9.7 mph /  15.6 km/h 46 % 0.0 in /  0 mm
16:32 26.3 °F /  -3.2 °C 13.8 °F /  -10.1 °C 1026.0 in /  34740.4 hPa SSE 6.4 mph /  10.3 km/h 6.4 mph /  10.3 km/h 46 % 0.0 in /  0 mm
16:37 26.3 °F /  -3.2 °C 13.4 °F /  -10.3 °C 1026.0 in /  34740.4 hPa SE 3.2 mph /  5.1 km/h 6.4 mph /  10.3 km/h 45 % 0.0 in /  0 mm
16:42 26.4 °F /  -3.1 °C 13.8 °F /  -10.1 °C 1026.0 in /  34740.4 hPa East 1.6 mph /  2.6 km/h 6.4 mph /  10.3 km/h 46 % 0.0 in /  0 mm
16:47 26.6 °F /  -3 °C 13.3 °F /  -10.4 °C 1026.0 in /  34740.4 hPa Calm   6.4 mph /  10.3 km/h 44 % 0.0 in /  0 mm
16:57 26.7 °F /  -2.9 °C 13.8 °F /  -10.1 °C 1026.0 in /  34740.4 hPa Calm   4.8 mph /  7.7 km/h 45 % 0.0 in /  0 mm
17:02 26.3 °F /  -3.2 °C 12.7 °F /  -10.7 °C 1026.0 in /  34740.4 hPa NNE 1.6 mph /  2.6 km/h 3.2 mph /  5.1 km/h 43 % 0.0 in /  0 mm
17:12 26.4 °F /  -3.1 °C 13.5 °F /  -10.3 °C 1025.6 in /  34726.8 hPa Calm   4.8 mph /  7.7 km/h 45 % 0.0 in /  0 mm
17:17 26.2 °F /  -3.2 °C 13.7 °F /  -10.2 °C 1025.6 in /  34726.8 hPa East 4.8 mph /  7.7 km/h 4.8 mph /  7.7 km/h 46 % 0.0 in /  0 mm
17:22 26.2 °F /  -3.2 °C 13.7 °F /  -10.2 °C 1025.6 in /  34726.8 hPa Calm   6.4 mph /  10.3 km/h 46 % 0.0 in /  0 mm
17:27 26.8 °F /  -2.9 °C 13.5 °F /  -10.3 °C 1025.6 in /  34726.8 hPa NNE 3.2 mph /  5.1 km/h 6.4 mph /  10.3 km/h 44 % 0.0 in /  0 mm
17:32 26.6 °F /  -3 °C 13.3 °F /  -10.4 °C 1025.6 in /  34726.8 hPa Calm   6.4 mph /  10.3 km/h 44 % 0.0 in /  0 mm
17:42 26.6 °F /  -3 °C 13.0 °F /  -10.6 °C 1025.6 in /  34726.8 hPa NNE 3.2 mph /  5.1 km/h 4.8 mph /  7.7 km/h 43 % 0.0 in /  0 mm
17:47 26.6 °F /  -3 °C 13.3 °F /  -10.4 °C 1025.6 in /  34726.8 hPa Calm   4.8 mph /  7.7 km/h 44 % 0.0 in /  0 mm
17:52 26.7 °F /  -2.9 °C 13.4 °F /  -10.3 °C 1025.6 in /  34726.8 hPa Calm   3.2 mph /  5.1 km/h 44 % 0.0 in /  0 mm
17:57 27.5 °F /  -2.5 °C 13.8 °F /  -10.1 °C 1025.6 in /  34726.8 hPa Calm   3.2 mph /  5.1 km/h 43 % 0.0 in /  0 mm
18:02 27.3 °F /  -2.6 °C 14.0 °F /  -10 °C 1025.6 in /  34726.8 hPa Calm   4.8 mph /  7.7 km/h 44 % 0.0 in /  0 mm
18:12 26.9 °F /  -2.8 °C 14.6 °F /  -9.7 °C 1025.3 in /  34716.7 hPa NE 4.8 mph /  7.7 km/h 4.8 mph /  7.7 km/h 47 % 0.0 in /  0 mm
18:17 26.3 °F /  -3.2 °C 13.4 °F /  -10.3 °C 1025.3 in /  34716.7 hPa ENE 1.6 mph /  2.6 km/h 4.8 mph /  7.7 km/h 45 % 0.0 in /  0 mm
18:22 26.7 °F /  -2.9 °C 13.4 °F /  -10.3 °C 1025.3 in /  34716.7 hPa Calm   8.0 mph /  12.9 km/h 44 % 0.0 in /  0 mm
18:27 26.9 °F /  -2.8 °C 12.5 °F /  -10.8 °C 1025.3 in /  34716.7 hPa Calm   8.0 mph /  12.9 km/h 41 % 0.0 in /  0 mm
18:32 27.1 °F /  -2.7 °C 13.4 °F /  -10.3 °C 1025.3 in /  34716.7 hPa Calm   8.0 mph /  12.9 km/h 43 % 0.0 in /  0 mm
18:37 26.6 °F /  -3 °C 13.3 °F /  -10.4 °C 1025.3 in /  34716.7 hPa East 1.6 mph /  2.6 km/h 3.2 mph /  5.1 km/h 44 % 0.0 in /  0 mm
18:42 26.7 °F /  -2.9 °C 13.4 °F /  -10.3 °C 1024.9 in /  34703.1 hPa Calm   6.4 mph /  10.3 km/h 44 % 0.0 in /  0 mm
18:52 26.3 °F /  -3.2 °C 14.1 °F /  -9.9 °C 1024.9 in /  34703.1 hPa Calm   6.4 mph /  10.3 km/h 47 % 0.0 in /  0 mm
18:57 26.1 °F /  -3.3 °C 13.2 °F /  -10.4 °C 1024.9 in /  34703.1 hPa ENE 3.2 mph /  5.1 km/h 6.4 mph /  10.3 km/h 45 % 0.0 in /  0 mm
19:02 25.7 °F /  -3.5 °C 13.2 °F /  -10.4 °C 1024.9 in /  34703.1 hPa NE 3.2 mph /  5.1 km/h 6.4 mph /  10.3 km/h 46 % 0.0 in /  0 mm
19:07 25.4 °F /  -3.7 °C 12.9 °F /  -10.6 °C 1024.9 in /  34703.1 hPa ENE 3.2 mph /  5.1 km/h 8.0 mph /  12.9 km/h 46 % 0.0 in /  0 mm
19:12 25.2 °F /  -3.8 °C 12.8 °F /  -10.7 °C 1024.9 in /  34703.1 hPa ENE 3.2 mph /  5.1 km/h 8.0 mph /  12.9 km/h 46 % 0.0 in /  0 mm
19:17 25.3 °F /  -3.7 °C 13.2 °F /  -10.4 °C 1024.9 in /  34703.1 hPa Calm   6.4 mph /  10.3 km/h 47 % 0.0 in /  0 mm
19:22 25.4 °F /  -3.7 °C 13.6 °F /  -10.2 °C 1024.9 in /  34703.1 hPa ENE 1.6 mph /  2.6 km/h 4.8 mph /  7.7 km/h 48 % 0.0 in /  0 mm
19:32 25.5 °F /  -3.6 °C 14.3 °F /  -9.8 °C 1024.9 in /  34703.1 hPa Calm   4.8 mph /  7.7 km/h 50 % 0.0 in /  0 mm
19:42 25.4 °F /  -3.7 °C 14.5 °F /  -9.7 °C 1024.9 in /  34703.1 hPa NNE 3.2 mph /  5.1 km/h 4.8 mph /  7.7 km/h 51 % 0.0 in /  0 mm
19:47 25.3 °F /  -3.7 °C 14.4 °F /  -9.8 °C 1024.9 in /  34703.1 hPa NE 4.8 mph /  7.7 km/h 9.7 mph /  15.6 km/h 51 % 0.0 in /  0 mm
19:52 25.2 °F /  -3.8 °C 14.9 °F /  -9.5 °C 1024.9 in /  34703.1 hPa ENE 4.8 mph /  7.7 km/h 9.7 mph /  15.6 km/h 53 % 0.0 in /  0 mm
19:57 25.1 °F /  -3.8 °C 14.6 °F /  -9.7 °C 1024.9 in /  34703.1 hPa NE 4.8 mph /  7.7 km/h 8.0 mph /  12.9 km/h 52 % 0.0 in /  0 mm
20:02 25.1 °F /  -3.8 °C 14.3 °F /  -9.8 °C 1024.9 in /  34703.1 hPa NE 3.2 mph /  5.1 km/h 8.0 mph /  12.9 km/h 51 % 0.0 in /  0 mm
20:07 25.0 °F /  -3.9 °C 14.2 °F /  -9.9 °C 1024.9 in /  34703.1 hPa NE 3.2 mph /  5.1 km/h 8.0 mph /  12.9 km/h 51 % 0.0 in /  0 mm
20:12 25.0 °F /  -3.9 °C 14.5 °F /  -9.7 °C 1024.9 in /  34703.1 hPa NE 4.8 mph /  7.7 km/h 8.0 mph /  12.9 km/h 52 % 0.0 in /  0 mm
20:17 24.9 °F /  -3.9 °C 14.7 °F /  -9.6 °C 1024.9 in /  34703.1 hPa NE 3.2 mph /  5.1 km/h 8.0 mph /  12.9 km/h 53 % 0.0 in /  0 mm
20:22 24.7 °F /  -4.1 °C 14.8 °F /  -9.6 °C 1024.6 in /  34693 hPa NE 3.2 mph /  5.1 km/h 6.4 mph /  10.3 km/h 54 % 0.0 in /  0 mm
20:27 24.5 °F /  -4.2 °C 14.9 °F /  -9.5 °C 1024.9 in /  34703.1 hPa NE 3.2 mph /  5.1 km/h 6.4 mph /  10.3 km/h 55 % 0.0 in /  0 mm
20:32 24.2 °F /  -4.3 °C 14.9 °F /  -9.5 °C 1024.9 in /  34703.1 hPa ENE 3.2 mph /  5.1 km/h 6.4 mph /  10.3 km/h 56 % 0.0 in /  0 mm
20:37 23.8 °F /  -4.6 °C 14.8 °F /  -9.6 °C 1024.9 in /  34703.1 hPa NE 3.2 mph /  5.1 km/h 6.4 mph /  10.3 km/h 57 % 0.0 in /  0 mm
20:42 23.6 °F /  -4.7 °C 14.6 °F /  -9.7 °C 1024.9 in /  34703.1 hPa NE 3.2 mph /  5.1 km/h 6.4 mph /  10.3 km/h 57 % 0.0 in /  0 mm
20:47 23.3 °F /  -4.8 °C 14.3 °F /  -9.8 °C 1024.9 in /  34703.1 hPa NE 3.2 mph /  5.1 km/h 6.4 mph /  10.3 km/h 57 % 0.0 in /  0 mm
20:57 23.1 °F /  -4.9 °C 14.1 °F /  -9.9 °C 1024.9 in /  34703.1 hPa NNE 4.8 mph /  7.7 km/h 6.4 mph /  10.3 km/h 57 % 0.0 in /  0 mm
21:02 22.9 °F /  -5.1 °C 14.2 °F /  -9.9 °C 1024.9 in /  34703.1 hPa NE 3.2 mph /  5.1 km/h 6.4 mph /  10.3 km/h 58 % 0.0 in /  0 mm
21:12 22.5 °F /  -5.3 °C 14.1 °F /  -9.9 °C 1024.9 in /  34703.1 hPa NE 4.8 mph /  7.7 km/h 6.4 mph /  10.3 km/h 59 % 0.0 in /  0 mm
21:17 22.3 °F /  -5.4 °C 13.9 °F /  -10.1 °C 1024.9 in /  34703.1 hPa NE 4.8 mph /  7.7 km/h 6.4 mph /  10.3 km/h 59 % 0.0 in /  0 mm
21:22 22.2 °F /  -5.4 °C 13.8 °F /  -10.1 °C 1024.9 in /  34703.1 hPa NE 4.8 mph /  7.7 km/h 6.4 mph /  10.3 km/h 59 % 0.0 in /  0 mm
21:27 22.1 °F /  -5.5 °C 14.0 °F /  -10 °C 1024.9 in /  34703.1 hPa NNE 4.8 mph /  7.7 km/h 6.4 mph /  10.3 km/h 60 % 0.0 in /  0 mm
21:32 21.7 °F /  -5.7 °C 13.8 °F /  -10.1 °C 1024.9 in /  34703.1 hPa Calm   6.4 mph /  10.3 km/h 61 % 0.0 in /  0 mm
21:37 21.3 °F /  -5.9 °C 14.0 °F /  -10 °C 1024.9 in /  34703.1 hPa North 1.6 mph /  2.6 km/h 6.4 mph /  10.3 km/h 63 % 0.0 in /  0 mm
21:42 21.0 °F /  -6.1 °C 13.9 °F /  -10.1 °C 1024.9 in /  34703.1 hPa Calm   4.8 mph /  7.7 km/h 64 % 0.0 in /  0 mm
21:47 20.8 °F /  -6.2 °C 14.0 °F /  -10 °C 1024.9 in /  34703.1 hPa North 1.6 mph /  2.6 km/h 3.2 mph /  5.1 km/h 65 % 0.0 in /  0 mm
21:52 20.6 °F /  -6.3 °C 14.0 °F /  -10 °C 1024.9 in /  34703.1 hPa NNW 1.6 mph /  2.6 km/h 3.2 mph /  5.1 km/h 66 % 0.0 in /  0 mm
21:57 20.4 °F /  -6.4 °C 13.8 °F /  -10.1 °C 1024.9 in /  34703.1 hPa Calm   3.2 mph /  5.1 km/h 66 % 0.0 in /  0 mm
22:02 20.1 °F /  -6.6 °C 13.8 °F /  -10.1 °C 1024.9 in /  34703.1 hPa Calm   1.6 mph /  2.6 km/h 67 % 0.0 in /  0 mm
22:12 19.8 °F /  -6.8 °C 13.5 °F /  -10.3 °C 1024.9 in /  34703.1 hPa Calm   1.6 mph /  2.6 km/h 67 % 0.0 in /  0 mm
22:17 19.8 °F /  -6.8 °C 13.5 °F /  -10.3 °C 1024.9 in /  34703.1 hPa Calm     67 % 0.0 in /  0 mm
22:22 19.6 °F /  -6.9 °C 13.5 °F /  -10.3 °C 1024.9 in /  34703.1 hPa Calm     68 % 0.0 in /  0 mm
22:27 19.3 °F /  -7.1 °C 13.5 °F /  -10.3 °C 1024.9 in /  34703.1 hPa NNE 1.6 mph /  2.6 km/h   69 % 0.0 in /  0 mm
22:32 19.1 °F /  -7.2 °C 13.3 °F /  -10.4 °C 1024.9 in /  34703.1 hPa NE 6.4 mph /  10.3 km/h 6.4 mph /  10.3 km/h 69 % 0.0 in /  0 mm
22:37 19.4 °F /  -7 °C 13.3 °F /  -10.4 °C 1024.9 in /  34703.1 hPa NE 6.4 mph /  10.3 km/h 8.0 mph /  12.9 km/h 68 % 0.0 in /  0 mm
22:42 19.6 °F /  -6.9 °C 13.3 °F /  -10.4 °C 1024.9 in /  34703.1 hPa NE 8.0 mph /  12.9 km/h 8.0 mph /  12.9 km/h 67 % 0.0 in /  0 mm
22:47 19.6 °F /  -6.9 °C 13.3 °F /  -10.4 °C 1024.9 in /  34703.1 hPa NNE 8.0 mph /  12.9 km/h 8.0 mph /  12.9 km/h 67 % 0.0 in /  0 mm
22:52 19.7 °F /  -6.8 °C 13.2 °F /  -10.4 °C 1024.9 in /  34703.1 hPa NE 4.8 mph /  7.7 km/h 9.7 mph /  15.6 km/h 66 % 0.0 in /  0 mm
22:57 19.5 °F /  -6.9 °C 13.2 °F /  -10.4 °C 1024.9 in /  34703.1 hPa NNE 1.6 mph /  2.6 km/h 9.7 mph /  15.6 km/h 67 % 0.0 in /  0 mm
23:02 19.0 °F /  -7.2 °C 13.0 °F /  -10.6 °C 1024.9 in /  34703.1 hPa WNW 4.8 mph /  7.7 km/h 9.7 mph /  15.6 km/h 68 % 0.0 in /  0 mm
23:12 17.3 °F /  -8.2 °C 13.0 °F /  -10.6 °C 1024.9 in /  34703.1 hPa WNW 3.2 mph /  5.1 km/h 4.8 mph /  7.7 km/h 76 % 0.0 in /  0 mm
23:17 17.5 °F /  -8.1 °C 13.2 °F /  -10.4 °C 1024.9 in /  34703.1 hPa Calm   4.8 mph /  7.7 km/h 76 % 0.0 in /  0 mm
23:22 17.8 °F /  -7.9 °C 13.1 °F /  -10.5 °C 1024.9 in /  34703.1 hPa WNW 1.6 mph /  2.6 km/h 4.8 mph /  7.7 km/h 74 % 0.0 in /  0 mm
23:27 17.4 °F /  -8.1 °C 13.1 °F /  -10.5 °C 1024.9 in /  34703.1 hPa WNW 1.6 mph /  2.6 km/h 3.2 mph /  5.1 km/h 76 % 0.0 in /  0 mm
23:32 17.2 °F /  -8.2 °C 13.1 °F /  -10.5 °C 1024.9 in /  34703.1 hPa Calm   3.2 mph /  5.1 km/h 77 % 0.0 in /  0 mm
23:37 17.5 °F /  -8.1 °C 13.0 °F /  -10.6 °C 1024.9 in /  34703.1 hPa NNW 1.6 mph /  2.6 km/h 3.2 mph /  5.1 km/h 75 % 0.0 in /  0 mm
23:42 17.8 °F /  -7.9 °C 13.1 °F /  -10.5 °C 1024.9 in /  34703.1 hPa Calm   3.2 mph /  5.1 km/h 74 % 0.0 in /  0 mm
23:47 17.7 °F /  -7.9 °C 13.0 °F /  -10.6 °C 1024.9 in /  34703.1 hPa Calm   3.2 mph /  5.1 km/h 74 % 0.0 in /  0 mm
23:52 17.6 °F /  -8 °C 12.9 °F /  -10.6 °C 1024.9 in /  34703.1 hPa Calm   3.2 mph /  5.1 km/h 74 % 0.0 in /  0 mm
23:57 17.6 °F /  -8 °C 12.9 °F /  -10.6 °C 1024.6 in /  34693 hPa Calm   3.2 mph /  5.1 km/h 74 % 0.0 in /  0 mm
Meteo18
Compliments of Weather Underground - 4 mb

Script developed by  Jim McMurry - jmcmurry@mwt.net Adapted for the template by  Wim van der Kuil - Leuven-Template.eu

You find our weather info also at:

European Weather Network

Weather Underground

Equipment we use:

Weather-station
Davis Vue

Weather-program
Meteobridge

Weather-server
Raspberry PI 2 B+

Provider
1 and 1

Davis Vue

Meteobridge

Raspberry PI 2 B+

1 and 1